Mount Princeton, Colorado
Current Conditions -  °F | °C
As of 12:14 PM on Sunday 23 Nov 2014 (Local Time) from K7BM Reporting Station
Scattered Clouds Scattered Clouds  
Wind Chill: -9°   Ceiling: Unl
Heat Index: -2°   Visibility: 10mi
Dew Point: -15°   Wind: 16mph
Humidity: 37%   Direction: 280°W
Pressure: 29.76"   Gusts: 30mph
Location:  38.7194°N, 106.276°W
Report Text: K7BM 231914Z AUTO 28014G26KT 240V320 10SM SCT039 SCT046 M02/M15 A2976 RMK AO2
Loading
Personal Weather Stations






























Interactive Weather Map New forecast layout! Learn more

10-Day Weather Forecast

Advertisements
Track Severe Weather on mobile